createdAt,value
2023-05-05T00:01:15.200Z,28.19
2023-05-05T00:05:16.613Z,28.07
2023-05-05T00:09:18.203Z,28.03
2023-05-05T00:13:20.920Z,28.21
2023-05-05T00:17:22.222Z,27.92
2023-05-05T00:21:23.515Z,28.09
2023-05-05T00:25:24.909Z,27.75
2023-05-05T00:29:26.632Z,27.89
2023-05-05T00:33:28.005Z,27.73
2023-05-05T00:37:29.351Z,27.80
2023-05-05T00:41:31.893Z,27.79
2023-05-05T00:45:33.283Z,27.69
2023-05-05T00:49:35.782Z,27.21
2023-05-05T00:53:39.659Z,27.54
2023-05-05T00:57:40.963Z,27.51
2023-05-05T01:01:42.355Z,27.58
2023-05-05T01:06:04.393Z,27.40
2023-05-05T01:10:26.064Z,27.46
2023-05-05T01:14:40.864Z,27.35
2023-05-05T01:19:14.960Z,27.35
2023-05-05T01:23:51.699Z,27.08
2023-05-05T01:27:56.065Z,26.99
2023-05-05T01:32:14.257Z,26.97
2023-05-05T01:36:24.154Z,27.13
2023-05-05T01:40:30.098Z,26.88
2023-05-05T01:44:34.647Z,26.84
2023-05-05T01:48:37.391Z,26.75
2023-05-05T01:52:41.138Z,26.74
2023-05-05T01:56:43.380Z,26.69
2023-05-05T02:00:45.521Z,26.65
2023-05-05T02:04:47.960Z,26.70
2023-05-05T02:08:50.976Z,26.46
2023-05-05T02:12:53.284Z,26.43
2023-05-05T02:16:56.923Z,26.49
2023-05-05T02:20:58.329Z,26.49
2023-05-05T02:24:59.770Z,26.43
2023-05-05T02:29:07.831Z,26.25
2023-05-05T02:33:17.134Z,26.43
2023-05-05T02:37:23.101Z,26.44
2023-05-05T02:41:26.801Z,26.39
2023-05-05T02:45:28.428Z,26.41
2023-05-05T02:49:29.919Z,26.34
2023-05-05T02:53:31.633Z,26.27
2023-05-05T02:57:47.348Z,26.29
2023-05-05T03:02:12.564Z,26.26
2023-05-05T03:06:17.337Z,26.37
2023-05-05T03:10:21.772Z,26.52
2023-05-05T03:14:24.630Z,26.51
2023-05-05T03:18:28.860Z,26.52
2023-05-05T03:22:30.613Z,26.54
2023-05-05T03:26:31.931Z,26.49
2023-05-05T03:30:33.236Z,26.41
2023-05-05T03:34:37.282Z,26.34
2023-05-05T03:38:38.600Z,26.21
2023-05-05T03:42:40.008Z,26.36
2023-05-05T03:46:41.389Z,26.21
2023-05-05T03:50:44.948Z,26.08
2023-05-05T03:54:46.345Z,26.05
2023-05-05T03:58:47.769Z,26.04
2023-05-05T04:02:49.144Z,25.93
2023-05-05T04:06:50.481Z,25.95
2023-05-05T04:10:51.832Z,26.07
2023-05-05T04:14:53.131Z,26.11
2023-05-05T04:18:55.311Z,26.10
2023-05-05T04:22:56.611Z,26.18
2023-05-05T04:26:57.971Z,26.19
2023-05-05T04:31:01.010Z,26.20
2023-05-05T04:35:02.549Z,26.30
2023-05-05T04:39:04.323Z,26.61
2023-05-05T04:43:06.931Z,26.69
2023-05-05T04:47:08.606Z,26.83
2023-05-05T04:51:10.102Z,27.01
2023-05-05T04:55:12.461Z,27.04
2023-05-05T04:59:14.588Z,27.14
2023-05-05T05:03:15.981Z,27.17
2023-05-05T05:07:17.331Z,27.25
2023-05-05T05:11:18.769Z,27.30
2023-05-05T05:15:20.257Z,27.28
2023-05-05T05:19:21.716Z,27.34
2023-05-05T05:23:23.108Z,27.51
2023-05-05T05:27:24.420Z,27.67
2023-05-05T05:31:25.803Z,27.82
2023-05-05T05:35:27.158Z,27.98
2023-05-05T05:39:28.444Z,28.04
2023-05-05T05:43:29.796Z,28.40
2023-05-05T05:47:31.174Z,28.52
2023-05-05T05:51:32.571Z,28.75
2023-05-05T05:55:33.987Z,29.16
2023-05-05T05:59:35.264Z,29.57
2023-05-05T06:03:36.653Z,29.88
2023-05-05T06:07:38.220Z,30.00
2023-05-05T06:11:39.688Z,30.15
2023-05-05T06:15:41.061Z,30.34
2023-05-05T06:19:43.302Z,30.78
2023-05-05T06:23:44.669Z,30.75
2023-05-05T06:27:46.311Z,31.26
2023-05-05T06:31:47.623Z,31.51
2023-05-05T06:35:51.885Z,32.41
2023-05-05T06:39:53.331Z,32.59
2023-05-05T06:43:54.649Z,32.61
2023-05-05T06:47:56.025Z,32.13
2023-05-05T06:51:57.398Z,32.37
2023-05-05T06:55:58.704Z,32.62
2023-05-05T07:00:00.396Z,32.66
2023-05-05T07:04:01.936Z,33.56
2023-05-05T07:08:03.672Z,33.41
2023-05-05T07:12:05.244Z,33.52
2023-05-05T07:16:06.775Z,33.13
2023-05-05T07:20:10.860Z,32.86
2023-05-05T07:24:12.377Z,33.86
2023-05-05T07:28:13.733Z,34.26
2023-05-05T07:32:15.209Z,35.19
2023-05-05T07:36:17.904Z,35.56
2023-05-05T07:40:19.613Z,34.64
2023-05-05T07:44:21.117Z,35.63
2023-05-05T07:48:22.558Z,35.84
2023-05-05T07:52:37.098Z,35.17
2023-05-05T07:56:45.803Z,35.75
2023-05-05T08:00:47.858Z,36.03
2023-05-05T08:04:49.302Z,36.46
2023-05-05T08:08:55.204Z,36.76
2023-05-05T08:12:56.636Z,36.72
2023-05-05T08:16:57.995Z,35.99
2023-05-05T08:20:59.309Z,37.04
2023-05-05T08:25:00.649Z,36.83
2023-05-05T08:29:02.286Z,36.77
2023-05-05T08:33:03.751Z,36.40
2023-05-05T08:37:05.198Z,36.29
2023-05-05T08:41:09.769Z,36.70
2023-05-05T08:45:11.912Z,34.94
2023-05-05T08:49:15.844Z,36.00
2023-05-05T08:53:19.853Z,36.23
2023-05-05T08:57:28.286Z,37.99
2023-05-05T09:01:31.867Z,37.79
2023-05-05T09:05:33.279Z,36.14
2023-05-05T09:09:35.456Z,36.69
2023-05-05T09:13:36.834Z,38.90
2023-05-05T09:17:39.029Z,39.86
2023-05-05T09:21:48.880Z,39.74
2023-05-05T09:26:04.344Z,40.46
2023-05-05T09:30:06.503Z,40.06
2023-05-05T09:34:15.811Z,41.12
2023-05-05T09:38:18.695Z,39.12
2023-05-05T09:42:20.059Z,37.75
2023-05-05T09:46:21.779Z,36.54
2023-05-05T09:50:23.486Z,36.07
2023-05-05T09:54:29.591Z,37.82
2023-05-05T09:58:31.316Z,39.71
2023-05-05T10:02:35.081Z,41.04
2023-05-05T10:06:43.878Z,41.02
2023-05-05T10:10:54.287Z,42.19
2023-05-05T10:14:56.397Z,40.46
2023-05-05T10:19:01.465Z,40.07
2023-05-05T10:23:06.610Z,38.79
2023-05-05T10:27:19.104Z,38.78
2023-05-05T10:31:37.003Z,39.96
2023-05-05T10:35:41.626Z,41.08
2023-05-05T10:39:44.589Z,41.48
2023-05-05T10:43:46.845Z,41.22
2023-05-05T10:47:49.879Z,40.53
2023-05-05T10:52:20.707Z,39.38
2023-05-05T10:56:27.846Z,37.75
2023-05-05T11:00:49.678Z,37.03
2023-05-05T11:05:17.962Z,36.62
2023-05-05T11:09:29.654Z,35.85
2023-05-05T11:13:31.471Z,35.29
2023-05-05T11:17:46.573Z,33.88
2023-05-05T11:22:01.835Z,32.94
2023-05-05T11:26:04.068Z,32.29
2023-05-05T11:30:10.732Z,30.70
2023-05-05T11:34:26.780Z,29.15
2023-05-05T11:38:41.091Z,29.11
2023-05-05T11:42:42.597Z,28.90
2023-05-05T11:46:53.001Z,28.26
2023-05-05T11:50:54.831Z,28.11
2023-05-05T11:55:01.697Z,27.82
2023-05-05T11:59:11.007Z,27.75
2023-05-05T12:03:12.530Z,27.17
2023-05-05T12:07:19.006Z,27.33
2023-05-05T12:11:20.986Z,27.75
2023-05-05T12:15:32.303Z,28.04
2023-05-05T12:19:34.598Z,28.15
2023-05-05T12:23:39.158Z,28.48
2023-05-05T12:27:41.247Z,29.12
2023-05-05T12:31:42.915Z,29.53
2023-05-05T12:35:44.355Z,30.23
2023-05-05T12:39:45.869Z,29.89
2023-05-05T12:43:47.609Z,29.65
2023-05-05T12:47:48.926Z,30.01
2023-05-05T12:51:55.388Z,29.06
2023-05-05T12:55:56.738Z,30.22
2023-05-05T12:59:58.279Z,29.67
2023-05-05T13:04:08.244Z,30.45
2023-05-05T13:08:09.692Z,30.90
2023-05-05T13:12:11.926Z,30.54
2023-05-05T13:16:13.360Z,30.32
2023-05-05T13:20:15.330Z,31.36
2023-05-05T13:28:21.099Z,31.81
2023-05-05T13:32:23.641Z,32.25
2023-05-05T13:36:25.184Z,32.24
2023-05-05T13:40:26.520Z,32.05
2023-05-05T13:44:27.841Z,32.23
2023-05-05T13:48:29.210Z,31.97
2023-05-05T13:52:32.116Z,31.87
2023-05-05T13:56:35.104Z,31.61
2023-05-05T14:00:36.833Z,31.10
2023-05-05T14:04:38.357Z,30.73
2023-05-05T14:08:39.750Z,30.80
2023-05-05T14:12:41.190Z,31.31
2023-05-05T14:16:42.486Z,30.84
2023-05-05T14:20:43.898Z,31.16
2023-05-05T14:24:45.318Z,29.43
2023-05-05T14:28:48.393Z,29.11
2023-05-05T14:32:51.220Z,27.96
2023-05-05T14:36:52.677Z,28.57
2023-05-05T14:40:54.162Z,29.62
2023-05-05T14:44:55.565Z,29.73
2023-05-05T14:48:57.710Z,28.73
2023-05-05T14:52:59.083Z,27.80
2023-05-05T14:57:00.561Z,27.08
2023-05-05T15:01:01.906Z,26.46
2023-05-05T15:05:03.310Z,26.31
2023-05-05T15:09:04.661Z,25.80
2023-05-05T15:13:06.386Z,25.64
2023-05-05T15:17:07.736Z,25.06
2023-05-05T15:21:09.108Z,25.20
2023-05-05T15:25:12.424Z,25.47
2023-05-05T15:29:13.850Z,25.82
2023-05-05T15:33:15.265Z,26.45
2023-05-05T15:37:16.670Z,26.48
2023-05-05T15:41:18.059Z,26.63
2023-05-05T15:45:19.398Z,26.61
2023-05-05T15:49:20.769Z,26.27
2023-05-05T15:53:22.080Z,26.11
2023-05-05T15:57:23.441Z,26.88
2023-05-05T16:01:24.847Z,26.37
2023-05-05T16:05:26.160Z,26.10
2023-05-05T16:09:27.721Z,25.62
2023-05-05T16:13:29.147Z,26.43
2023-05-05T16:17:30.993Z,25.03
2023-05-05T16:21:33.271Z,25.07
2023-05-05T16:25:34.605Z,25.40
2023-05-05T16:29:36.153Z,26.16
2023-05-05T16:33:40.725Z,26.91
2023-05-05T16:37:42.040Z,26.79
2023-05-05T16:41:43.320Z,25.36
2023-05-05T16:45:44.609Z,26.34
2023-05-05T16:49:45.967Z,26.20
2023-05-05T16:53:48.933Z,25.55
2023-05-05T16:57:50.532Z,25.70
2023-05-05T17:01:51.878Z,25.33
2023-05-05T17:05:53.536Z,26.26
2023-05-05T17:09:55.029Z,25.60
2023-05-05T17:13:56.326Z,25.15
2023-05-05T17:17:57.778Z,24.89
2023-05-05T17:21:59.300Z,23.57
2023-05-05T17:26:00.683Z,24.89
2023-05-05T17:30:02.082Z,25.46
2023-05-05T17:34:03.372Z,24.62
2023-05-05T17:38:04.712Z,24.68
2023-05-05T17:42:06.112Z,23.50
2023-05-05T17:46:07.492Z,24.00
2023-05-05T17:50:10.894Z,23.26
2023-05-05T17:54:12.214Z,24.46
2023-05-05T17:58:13.645Z,22.14
2023-05-05T18:02:15.307Z,23.51
2023-05-05T18:06:16.930Z,24.58
2023-05-05T18:10:18.342Z,24.65
2023-05-05T18:14:20.316Z,24.83
2023-05-05T18:18:22.099Z,23.94
2023-05-05T18:22:23.501Z,24.32
2023-05-05T18:26:25.028Z,24.72
2023-05-05T18:30:26.446Z,24.50
2023-05-05T18:34:29.366Z,24.45
2023-05-05T18:38:32.589Z,24.34
2023-05-05T18:42:33.948Z,24.64
2023-05-05T18:46:35.419Z,24.51
2023-05-05T18:50:37.128Z,23.60
2023-05-05T18:54:38.530Z,23.56
2023-05-05T18:58:39.800Z,23.89
2023-05-05T19:02:41.154Z,24.40
2023-05-05T19:06:42.533Z,24.04
2023-05-05T19:10:43.954Z,24.51
2023-05-05T19:14:45.426Z,23.41
2023-05-05T19:18:46.783Z,23.93
2023-05-05T19:22:48.266Z,24.28
2023-05-05T19:26:49.712Z,24.17
2023-05-05T19:30:52.080Z,24.32
2023-05-05T19:34:56.555Z,24.11
2023-05-05T19:39:03.124Z,24.06
2023-05-05T19:43:04.551Z,23.73
2023-05-05T19:47:05.945Z,24.27
2023-05-05T19:51:07.356Z,24.07
2023-05-05T19:55:10.323Z,24.24
2023-05-05T19:59:12.019Z,24.27
2023-05-05T20:03:13.684Z,24.13
2023-05-05T20:07:15.737Z,24.15
2023-05-05T20:11:17.216Z,24.10
2023-05-05T20:15:20.414Z,24.12
2023-05-05T20:19:21.732Z,24.06
2023-05-05T20:23:23.144Z,24.18
2023-05-05T20:27:26.569Z,24.17
2023-05-05T20:31:28.780Z,24.17
2023-05-05T20:35:30.374Z,24.26
2023-05-05T20:39:31.738Z,24.18
2023-05-05T20:43:33.921Z,24.22
2023-05-05T20:47:35.716Z,24.17
2023-05-05T20:51:37.029Z,24.13
2023-05-05T20:55:38.387Z,24.06
2023-05-05T20:59:39.773Z,24.09
2023-05-05T21:03:41.279Z,24.14
2023-05-05T21:07:42.782Z,24.07
2023-05-05T21:11:44.189Z,24.21
2023-05-05T21:15:45.515Z,24.07
2023-05-05T21:19:47.003Z,24.20
2023-05-05T21:23:48.380Z,24.25
2023-05-05T21:27:49.801Z,24.30
2023-05-05T21:31:51.364Z,24.26
2023-05-05T21:35:52.706Z,24.33
2023-05-05T21:39:54.166Z,24.25
2023-05-05T21:43:55.645Z,24.22
2023-05-05T21:47:57.082Z,24.32
2023-05-05T21:51:58.700Z,24.16
2023-05-05T21:56:00.485Z,24.14
2023-05-05T22:00:02.728Z,24.16
2023-05-05T22:04:04.305Z,24.00
2023-05-05T22:08:06.019Z,23.95
2023-05-05T22:12:07.731Z,23.96
2023-05-05T22:16:09.988Z,24.00
2023-05-05T22:20:11.750Z,23.99
2023-05-05T22:24:13.209Z,23.99
2023-05-05T22:28:14.668Z,23.99
2023-05-05T22:32:16.031Z,23.91
2023-05-05T22:36:17.393Z,23.90
2023-05-05T22:40:18.754Z,23.91
2023-05-05T22:44:20.455Z,23.87
2023-05-05T22:48:21.869Z,23.85
2023-05-05T22:52:25.533Z,23.88
2023-05-05T22:56:26.971Z,23.68
2023-05-05T23:00:28.478Z,23.79
2023-05-05T23:04:30.043Z,23.83
2023-05-05T23:08:31.479Z,23.85
2023-05-05T23:12:33.065Z,23.89
2023-05-05T23:16:34.618Z,23.76
2023-05-05T23:20:36.052Z,23.86
2023-05-05T23:24:37.321Z,23.88
2023-05-05T23:28:38.757Z,23.75
2023-05-05T23:32:40.318Z,23.87
2023-05-05T23:36:41.792Z,23.88
2023-05-05T23:40:43.252Z,23.76
2023-05-05T23:44:44.538Z,23.74
2023-05-05T23:48:45.954Z,23.65
2023-05-05T23:52:47.321Z,23.66
2023-05-05T23:56:48.916Z,23.64
